Time;durP1;ratioP1;P1;durP2;ratioP2;P2;SDS_P1;SDS_P2;PMS_P1;PMS_P2;Temp;Humidity;BMP_temperature;BMP_pressure;BME280_temperature;BME280_humidity;BME280_pressure;Samples;Min_cycle;Max_cycle;Signal;HPM_P1;HPM_P2
2022/09/08 00:01:47;;;;;;;8.77;6.35;;;16.30;99.90;;;;;;5069492;28;20044;-61
2022/09/08 00:04:13;;;;;;;10.93;7.65;;;16.40;99.90;;;;;;5069558;28;20047;-61
2022/09/08 00:06:39;;;;;;;11.45;8.88;;;16.30;99.90;;;;;;5069095;28;20573;-56
2022/09/08 00:09:05;;;;;;;9.60;8.50;;;16.40;99.90;;;;;;5069088;28;20151;-56
2022/09/08 00:11:33;;;;;;;13.85;9.80;;;16.30;99.90;;;;;;5069122;28;20145;-57
2022/09/08 00:14:03;;;;;;;9.85;8.50;;;16.40;99.90;;;;;;5059814;28;20062;-58
2022/09/08 00:16:29;;;;;;;13.95;9.52;;;16.30;99.90;;;;;;5049152;28;20037;-56
2022/09/08 00:18:55;;;;;;;13.52;10.10;;;16.30;99.90;;;;;;5067766;28;20056;-56
2022/09/08 00:21:23;;;;;;;17.00;11.57;;;16.30;99.90;;;;;;5069198;28;20474;-56
2022/09/08 00:23:49;;;;;;;15.60;12.27;;;16.40;99.90;;;;;;5050871;28;20117;-56
2022/09/08 00:26:16;;;;;;;17.80;11.90;;;16.30;99.90;;;;;;5068786;28;20515;-56
2022/09/08 00:28:42;;;;;;;16.65;11.98;;;16.20;99.90;;;;;;5065707;28;20493;-56
2022/09/08 00:31:08;;;;;;;14.10;11.52;;;16.30;99.90;;;;;;5068428;28;20055;-60
2022/09/08 00:33:34;;;;;;;14.52;11.40;;;16.30;99.90;;;;;;5069052;28;20052;-61
2022/09/08 00:36:02;;;;;;;15.07;11.75;;;16.30;99.90;;;;;;5066995;28;20044;-57
2022/09/08 00:38:30;;;;;;;12.88;11.50;;;16.20;99.90;;;;;;5048255;28;20059;-56
2022/09/08 00:40:56;;;;;;;14.73;12.52;;;16.20;99.90;;;;;;5048138;28;20124;-56
2022/09/08 00:43:36;;;;;;;20.48;14.82;;;16.20;99.90;;;;;;5056938;28;20056;-59
2022/09/08 00:46:09;;;;;;;15.40;12.60;;;16.20;99.90;;;;;;5068298;28;20505;-56
2022/09/08 00:48:58;;;;;;;16.02;14.02;;;16.10;99.90;;;;;;5072720;28;20056;-56
2022/09/08 00:51:25;;;;;;;20.83;16.40;;;16.20;99.90;;;;;;5072350;28;20037;-56
2022/09/08 00:53:52;;;;;;;18.80;15.57;;;16.20;99.90;;;;;;5072665;28;20037;-56
2022/09/08 00:56:18;;;;;;;18.10;15.07;;;16.10;99.90;;;;;;5072458;28;20051;-56
2022/09/08 00:58:44;;;;;;;20.23;15.70;;;16.10;99.90;;;;;;5059119;28;20090;-57
2022/09/08 01:01:10;;;;;;;18.88;16.45;;;16.10;99.90;;;;;;5069273;28;20044;-58
2022/09/08 01:03:39;;;;;;;22.27;17.27;;;16.10;99.90;;;;;;5072189;28;20056;-57
2022/09/08 01:06:21;;;;;;;18.60;16.67;;;16.00;99.90;;;;;;5071956;28;20115;-57
2022/09/08 01:14:46;;;;;;;21.60;17.42;;;16.00;99.90;;;;;;5051886;28;20510;-56
2022/09/08 01:17:18;;;;;;;20.38;16.70;;;16.00;99.90;;;;;;5057054;28;20110;-56
2022/09/08 01:19:46;;;;;;;23.13;19.17;;;16.00;99.90;;;;;;5072045;28;20119;-56
2022/09/08 01:22:18;;;;;;;21.45;18.48;;;16.00;99.90;;;;;;5065352;28;20045;-56
2022/09/08 01:24:56;;;;;;;24.55;20.00;;;16.00;99.90;;;;;;5051766;28;20079;-57
2022/09/08 01:27:26;;;;;;;24.63;20.25;;;16.00;99.90;;;;;;5051850;28;20057;-56
2022/09/08 01:29:59;;;;;;;22.52;19.73;;;15.90;99.90;;;;;;5052054;28;20060;-56
2022/09/08 01:32:31;;;;;;;28.38;21.98;;;15.90;99.90;;;;;;5052199;28;20090;-56
2022/09/08 01:34:56;;;;;;;25.05;21.38;;;15.90;99.90;;;;;;5056337;28;20054;-56
2022/09/08 01:37:22;;;;;;;31.23;22.17;;;15.90;99.90;;;;;;5058842;28;20052;-56
2022/09/08 01:39:48;;;;;;;26.45;23.35;;;16.00;99.90;;;;;;5051519;28;20049;-56
2022/09/08 01:42:13;;;;;;;29.92;23.35;;;16.00;99.90;;;;;;5051758;28;20053;-56
2022/09/08 01:44:39;;;;;;;28.40;23.67;;;16.00;99.90;;;;;;5052022;28;20049;-56
2022/09/08 01:47:05;;;;;;;31.52;25.40;;;16.00;99.90;;;;;;5051716;28;20044;-56
2022/09/08 01:49:34;;;;;;;30.30;24.67;;;16.00;99.90;;;;;;5051134;28;20052;-56
2022/09/08 01:51:59;;;;;;;30.80;23.92;;;16.00;99.90;;;;;;5061341;28;20568;-57
2022/09/08 01:54:27;;;;;;;29.67;23.02;;;16.00;99.90;;;;;;5071402;28;20094;-56
2022/09/08 01:56:54;;;;;;;33.45;25.08;;;16.10;99.90;;;;;;5070971;28;20119;-56
2022/09/08 01:59:20;;;;;;;28.83;24.65;;;16.10;99.90;;;;;;5070912;28;20044;-56
2022/09/08 02:01:45;;;;;;;34.63;26.00;;;16.10;99.90;;;;;;5071236;28;20691;-56
2022/09/08 02:04:12;;;;;;;34.05;26.23;;;16.10;99.90;;;;;;5070823;28;20120;-56
2022/09/08 02:06:37;;;;;;;33.45;25.60;;;16.20;99.90;;;;;;5070412;28;20044;-56
2022/09/08 02:09:04;;;;;;;33.38;26.05;;;16.20;99.90;;;;;;5059489;28;20052;-56
2022/09/08 02:11:30;;;;;;;32.92;27.50;;;16.30;99.90;;;;;;5050626;28;20498;-56
2022/09/08 02:13:56;;;;;;;35.40;28.27;;;16.30;99.90;;;;;;5050909;28;20048;-56
2022/09/08 02:16:21;;;;;;;33.08;27.90;;;16.30;99.90;;;;;;5032753;28;20045;-56
2022/09/08 02:18:47;;;;;;;35.72;29.83;;;16.40;99.90;;;;;;5051649;28;20049;-56
2022/09/08 02:21:18;;;;;;;38.58;30.02;;;16.40;99.90;;;;;;5050723;28;20051;-56
2022/09/08 02:23:46;;;;;;;33.00;28.65;;;16.40;99.90;;;;;;5051130;28;20084;-56
2022/09/08 02:26:24;;;;;;;33.50;27.27;;;16.40;99.90;;;;;;5050768;28;20053;-56
2022/09/08 02:28:53;;;;;;;34.85;28.65;;;16.50;99.90;;;;;;5050663;28;20061;-56
2022/09/08 02:31:20;;;;;;;40.15;31.05;;;16.50;99.90;;;;;;5050994;28;20120;-58
2022/09/08 02:33:46;;;;;;;34.75;29.58;;;16.50;99.90;;;;;;5071291;28;20045;-58
2022/09/08 02:36:12;;;;;;;32.20;28.50;;;16.50;99.90;;;;;;5066625;28;20156;-57
2022/09/08 02:38:39;;;;;;;33.47;28.65;;;16.50;99.90;;;;;;5032109;28;20160;-56
2022/09/08 02:41:06;;;;;;;35.53;30.23;;;16.50;99.90;;;;;;5050802;28;20396;-56
2022/09/08 02:43:32;;;;;;;35.67;28.02;;;16.60;99.90;;;;;;5050340;28;20499;-56
2022/09/08 02:46:06;;;;;;;33.97;27.38;;;16.60;99.90;;;;;;5031867;28;20076;-56
2022/09/08 02:48:31;;;;;;;33.30;27.55;;;16.60;99.90;;;;;;5049813;28;20190;-57
2022/09/08 02:51:01;;;;;;;34.50;28.75;;;16.60;99.90;;;;;;5049309;28;20538;-57
2022/09/08 02:53:28;;;;;;;35.97;28.50;;;16.60;99.90;;;;;;5050303;28;20049;-57
2022/09/08 02:55:54;;;;;;;33.30;28.45;;;16.70;99.90;;;;;;5050110;28;20044;-57
2022/09/08 02:58:20;;;;;;;36.75;28.92;;;16.70;99.90;;;;;;5050077;28;20044;-57
2022/09/08 03:00:45;;;;;;;32.88;28.25;;;16.60;99.90;;;;;;5059030;28;20036;-56
2022/09/08 03:03:11;;;;;;;39.25;28.98;;;16.70;99.90;;;;;;5031795;28;20051;-57
2022/09/08 03:05:37;;;;;;;37.90;29.63;;;16.70;99.90;;;;;;5050314;28;20075;-57
2022/09/08 03:08:03;;;;;;;31.85;27.98;;;16.70;99.90;;;;;;5054990;28;20130;-57
2022/09/08 03:10:30;;;;;;;32.42;27.50;;;16.70;99.90;;;;;;5069087;28;20080;-57
2022/09/08 03:12:56;;;;;;;35.25;28.75;;;16.80;99.90;;;;;;5070110;28;20047;-57
2022/09/08 03:15:24;;;;;;;35.55;28.02;;;16.70;99.90;;;;;;5051950;28;20448;-57
2022/09/08 03:17:50;;;;;;;34.47;28.52;;;16.80;99.90;;;;;;5059352;28;20049;-56
2022/09/08 03:20:17;;;;;;;32.72;27.30;;;16.70;99.90;;;;;;5049877;28;20055;-56
2022/09/08 03:22:42;;;;;;;36.97;29.10;;;16.80;99.90;;;;;;5050120;28;20134;-56
2022/09/08 03:25:09;;;;;;;34.83;28.73;;;16.70;99.90;;;;;;5049847;28;20519;-56
2022/09/08 03:27:35;;;;;;;33.67;27.52;;;16.70;99.90;;;;;;5049223;28;20452;-56
2022/09/08 03:30:02;;;;;;;37.30;30.58;;;16.70;99.90;;;;;;5032088;28;20052;-56
2022/09/08 03:32:28;;;;;;;37.42;30.33;;;16.70;99.90;;;;;;5058528;28;20116;-56
2022/09/08 03:34:53;;;;;;;34.50;28.08;;;16.70;99.90;;;;;;5054480;28;20488;-56
2022/09/08 03:37:19;;;;;;;37.70;28.70;;;16.70;99.90;;;;;;5057495;28;20045;-56
2022/09/08 03:39:45;;;;;;;37.35;29.95;;;16.70;99.90;;;;;;5049824;28;20044;-56
2022/09/08 03:42:11;;;;;;;37.30;31.65;;;16.60;99.90;;;;;;5049596;28;20048;-56
2022/09/08 03:44:37;;;;;;;37.13;30.63;;;16.60;99.90;;;;;;5049769;28;20052;-57
2022/09/08 03:47:03;;;;;;;35.42;30.52;;;16.60;99.90;;;;;;5031648;28;20091;-56
2022/09/08 03:49:29;;;;;;;35.22;29.95;;;16.60;99.90;;;;;;5049792;28;20061;-59
2022/09/08 03:51:55;;;;;;;36.22;29.90;;;16.60;99.90;;;;;;5049953;28;20209;-60
2022/09/08 03:57:04;;;;;;;35.83;30.50;;;16.60;99.90;;;;;;5049511;28;20107;-56
2022/09/08 03:59:30;;;;;;;45.10;31.90;;;16.60;99.90;;;;;;5052637;28;20044;-56
2022/09/08 04:01:56;;;;;;;39.30;31.77;;;16.60;99.90;;;;;;5058103;28;20459;-56
2022/09/08 04:04:23;;;;;;;41.67;33.25;;;16.60;99.90;;;;;;5049079;28;20105;-56
2022/09/08 04:06:49;;;;;;;38.28;31.50;;;16.60;99.90;;;;;;5048948;28;20547;-56
2022/09/08 04:09:16;;;;;;;44.63;33.42;;;16.60;99.90;;;;;;5064996;28;20091;-56
2022/09/08 04:11:42;;;;;;;42.17;32.30;;;16.60;99.90;;;;;;5069538;28;20118;-56
2022/09/08 04:14:08;;;;;;;37.67;31.20;;;16.60;99.90;;;;;;5069020;28;20095;-56
2022/09/08 04:16:34;;;;;;;39.55;31.65;;;16.60;99.90;;;;;;5068648;28;20405;-56
2022/09/08 04:18:59;;;;;;;39.45;31.15;;;16.70;99.90;;;;;;5067740;28;20040;-56
2022/09/08 04:21:25;;;;;;;40.67;31.80;;;16.70;99.90;;;;;;5068070;28;20086;-56
2022/09/08 04:23:52;;;;;;;38.45;32.17;;;16.70;99.90;;;;;;5068365;28;20056;-56
2022/09/08 04:26:18;;;;;;;41.55;32.90;;;16.70;99.90;;;;;;5068068;28;20056;-56
2022/09/08 04:28:43;;;;;;;42.10;33.45;;;16.70;99.90;;;;;;5067769;28;20149;-56
2022/09/08 04:31:14;;;;;;;38.13;31.63;;;16.70;99.90;;;;;;5065854;28;20091;-56
2022/09/08 04:33:40;;;;;;;43.50;33.17;;;16.70;99.90;;;;;;5068944;28;20048;-56
2022/09/08 04:36:17;;;;;;;40.80;32.80;;;16.70;99.90;;;;;;5066245;28;20118;-56
2022/09/08 04:38:43;;;;;;;40.85;33.90;;;16.70;99.90;;;;;;5054072;28;20487;-56
2022/09/08 04:41:12;;;;;;;38.08;31.73;;;16.70;99.90;;;;;;5053924;28;20128;-56
2022/09/08 04:43:38;;;;;;;44.10;33.67;;;16.70;99.90;;;;;;5030263;28;20057;-56
2022/09/08 04:46:11;;;;;;;37.70;31.33;;;16.70;99.90;;;;;;5051153;28;20051;-56
2022/09/08 04:48:38;;;;;;;38.22;30.52;;;16.70;99.90;;;;;;5047833;28;20548;-56
2022/09/08 04:51:04;;;;;;;40.25;32.08;;;16.70;99.90;;;;;;5066205;28;20044;-56
2022/09/08 04:53:32;;;;;;;40.42;34.47;;;16.70;99.90;;;;;;5066622;28;20437;-56
2022/09/08 04:55:59;;;;;;;41.13;32.53;;;16.80;99.90;;;;;;5047883;28;20044;-56
2022/09/08 04:58:25;;;;;;;38.95;31.33;;;16.70;99.90;;;;;;5040380;28;20405;-57
2022/09/08 05:00:51;;;;;;;37.33;30.00;;;16.80;99.90;;;;;;5050775;28;20033;-57
2022/09/08 05:03:16;;;;;;;39.58;32.72;;;16.80;99.90;;;;;;5047542;28;20052;-56
2022/09/08 05:05:42;;;;;;;39.72;32.17;;;16.80;99.90;;;;;;5049658;28;20049;-56
2022/09/08 05:08:08;;;;;;;43.65;32.47;;;16.80;99.90;;;;;;5051981;28;20045;-56
2022/09/08 05:10:34;;;;;;;36.10;30.08;;;16.80;99.90;;;;;;5063667;28;20048;-56
2022/09/08 05:13:00;;;;;;;37.60;30.58;;;16.80;99.90;;;;;;5067121;28;20171;-56
2022/09/08 05:15:27;;;;;;;35.30;30.08;;;16.80;99.90;;;;;;5056177;28;20051;-57
2022/09/08 05:17:54;;;;;;;40.42;31.15;;;16.80;99.90;;;;;;5057441;28;20048;-56
2022/09/08 05:20:20;;;;;;;34.28;29.75;;;16.90;99.90;;;;;;5066375;28;20052;-56
2022/09/08 05:22:46;;;;;;;38.50;30.73;;;16.90;99.90;;;;;;5065240;28;22684;-56
2022/09/08 05:25:12;;;;;;;37.50;30.80;;;16.90;99.90;;;;;;5066230;28;20055;-56
2022/09/08 05:27:37;;;;;;;38.65;30.73;;;16.90;99.90;;;;;;5067773;28;20055;-57
2022/09/08 05:30:04;;;;;;;36.08;31.25;;;16.90;99.90;;;;;;5067220;28;20080;-56
2022/09/08 05:32:29;;;;;;;36.05;29.08;;;16.90;99.90;;;;;;5034536;28;20106;-56
2022/09/08 05:34:55;;;;;;;39.45;30.83;;;16.90;99.90;;;;;;5054819;28;20101;-56
2022/09/08 05:37:21;;;;;;;37.65;30.65;;;17.00;99.90;;;;;;5058497;28;20093;-56
2022/09/08 05:39:46;;;;;;;40.35;30.73;;;17.00;99.90;;;;;;5051856;28;20049;-56
2022/09/08 05:42:13;;;;;;;37.80;29.77;;;17.10;99.90;;;;;;5053337;28;20109;-57
2022/09/08 05:44:38;;;;;;;35.67;29.85;;;17.10;99.90;;;;;;5052134;28;20085;-57
2022/09/08 05:47:04;;;;;;;33.95;29.40;;;17.10;99.90;;;;;;5069747;28;20075;-57
2022/09/08 05:49:31;;;;;;;39.00;32.38;;;17.20;99.90;;;;;;5071351;28;20040;-59
2022/09/08 05:51:58;;;;;;;38.80;30.27;;;17.30;99.90;;;;;;5071234;28;20059;-59
2022/09/08 05:54:24;;;;;;;39.95;30.25;;;17.30;99.90;;;;;;5071483;28;20052;-56
2022/09/08 05:56:50;;;;;;;36.35;29.92;;;17.30;99.90;;;;;;5053032;28;20106;-56
2022/09/08 05:59:17;;;;;;;32.47;28.67;;;17.30;99.90;;;;;;5069724;28;20703;-58
2022/09/08 06:01:43;;;;;;;41.67;31.83;;;17.40;99.90;;;;;;5058360;28;20049;-58
2022/09/08 06:04:09;;;;;;;38.90;31.25;;;17.40;99.90;;;;;;5051391;28;20506;-57
2022/09/08 06:06:36;;;;;;;38.45;32.13;;;17.40;99.90;;;;;;5051362;28;20048;-60
2022/09/08 06:09:03;;;;;;;37.47;30.20;;;17.50;99.90;;;;;;5065265;28;20413;-56
2022/09/08 06:11:31;;;;;;;44.63;33.13;;;17.50;99.90;;;;;;5069842;28;20585;-63
2022/09/08 06:13:57;;;;;;;38.45;32.22;;;17.60;99.90;;;;;;5061976;28;20512;-63
2022/09/08 06:16:23;;;;;;;36.65;29.23;;;17.50;99.90;;;;;;5062607;28;20044;-63
2022/09/08 06:18:50;;;;;;;36.10;30.73;;;17.60;99.90;;;;;;5064197;28;20044;-61
2022/09/08 06:21:16;;;;;;;39.47;30.35;;;17.60;99.90;;;;;;5061897;28;20131;-62
2022/09/08 06:23:42;;;;;;;39.88;32.80;;;17.60;99.90;;;;;;5053595;28;20136;-62
2022/09/08 06:26:38;;;;;;;37.97;30.40;;;17.60;99.90;;;;;;5050005;28;20410;-63
2022/09/08 06:29:29;;;;;;;38.97;30.83;;;17.70;99.90;;;;;;5050504;28;20081;-60
2022/09/08 06:32:32;;;;;;;36.83;30.15;;;17.70;99.90;;;;;;5051159;28;20459;-62
2022/09/08 06:35:00;;;;;;;33.30;28.05;;;17.70;99.90;;;;;;5053667;28;20063;-58
2022/09/08 06:37:37;;;;;;;39.92;31.52;;;17.70;99.90;;;;;;5061567;28;20121;-63
2022/09/08 06:40:11;;;;;;;35.70;30.88;;;17.60;99.90;;;;;;5060024;28;20049;-59
2022/09/08 06:42:50;;;;;;;33.58;29.98;;;17.70;99.90;;;;;;5060045;28;20436;-57
2022/09/08 06:45:22;;;;;;;37.72;29.67;;;17.70;99.90;;;;;;5065162;28;20501;-56
2022/09/08 06:47:59;;;;;;;36.55;29.92;;;17.70;99.90;;;;;;5069001;28;20041;-56
2022/09/08 06:50:25;;;;;;;39.63;31.55;;;17.70;99.90;;;;;;5068695;28;20095;-57
2022/09/08 06:52:52;;;;;;;35.38;31.33;;;17.60;99.90;;;;;;5070467;28;20044;-57
2022/09/08 06:55:47;;;;;;;44.30;36.05;;;17.50;99.90;;;;;;5050298;28;20132;-59
2022/09/08 06:58:31;;;;;;;43.65;35.90;;;17.30;99.90;;;;;;5059377;28;20064;-56
2022/09/08 07:01:08;;;;;;;42.45;33.75;;;17.30;99.90;;;;;;5052496;28;20045;-57
2022/09/08 07:04:02;;;;;;;43.85;35.55;;;17.30;99.90;;;;;;5067108;28;20094;-57
2022/09/08 07:06:35;;;;;;;41.50;34.42;;;17.20;99.90;;;;;;5050920;28;20502;-56
2022/09/08 07:09:24;;;;;;;41.53;34.20;;;17.20;99.90;;;;;;5069657;28;20053;-62
2022/09/08 07:11:53;;;;;;;46.83;36.70;;;17.30;99.90;;;;;;5070090;28;20123;-60
2022/09/08 07:14:34;;;;;;;39.85;34.33;;;17.20;99.90;;;;;;5069881;28;20080;-59
2022/09/08 07:17:12;;;;;;;40.70;33.38;;;17.30;99.90;;;;;;5069964;28;20040;-59
2022/09/08 07:19:51;;;;;;;38.05;33.55;;;17.30;99.90;;;;;;5070110;28;20053;-59
2022/09/08 07:22:43;;;;;;;40.33;33.33;;;17.30;99.90;;;;;;5069305;28;20051;-62
2022/09/08 07:25:14;;;;;;;40.63;35.15;;;17.30;99.90;;;;;;5069185;28;20080;-62
2022/09/08 07:27:41;;;;;;;42.08;34.65;;;17.20;99.90;;;;;;5069485;28;20067;-60
2022/09/08 07:30:16;;;;;;;42.35;35.97;;;17.30;99.90;;;;;;5051671;28;20127;-64
2022/09/08 07:32:51;;;;;;;38.75;34.13;;;17.30;99.90;;;;;;5069616;28;20410;-63
2022/09/08 07:35:24;;;;;;;40.58;34.20;;;17.30;99.90;;;;;;5069811;28;20051;-63
2022/09/08 07:37:54;;;;;;;41.90;33.78;;;17.30;99.90;;;;;;5052293;28;20398;-63
2022/09/08 07:40:45;;;;;;;44.15;36.33;;;17.20;99.90;;;;;;5049267;28;20044;-62
2022/09/08 07:43:13;;;;;;;39.00;33.08;;;17.30;99.90;;;;;;5042738;28;20147;-58
2022/09/08 07:45:42;;;;;;;39.72;32.55;;;17.30;99.90;;;;;;5049599;28;20152;-56
2022/09/08 07:48:16;;;;;;;39.22;34.72;;;17.30;99.90;;;;;;5049639;28;20060;-57
2022/09/08 07:50:55;;;;;;;39.17;33.05;;;17.30;99.90;;;;;;5049870;28;20053;-56
2022/09/08 07:53:58;;;;;;;40.03;34.40;;;17.30;99.90;;;;;;5065816;28;20486;-56
2022/09/08 07:56:28;;;;;;;40.75;33.70;;;17.40;99.90;;;;;;5068916;28;20079;-57
2022/09/08 07:59:22;;;;;;;42.42;35.30;;;17.30;99.90;;;;;;5068815;28;20409;-56
2022/09/08 08:02:09;;;;;;;38.65;32.67;;;18.00;99.90;;;;;;5050203;28;20084;-56
2022/09/08 08:04:53;;;;;;;37.90;33.20;;;17.50;99.90;;;;;;5048865;28;20612;-56
2022/09/08 08:07:34;;;;;;;37.22;31.33;;;17.40;99.90;;;;;;5031304;28;20052;-56
2022/09/08 08:10:03;;;;;;;39.75;33.47;;;17.50;99.90;;;;;;5065698;28;20082;-56
2022/09/08 08:12:42;;;;;;;40.22;33.38;;;17.50;99.90;;;;;;5069080;28;20106;-56
2022/09/08 08:15:32;;;;;;;41.50;35.03;;;17.50;99.90;;;;;;5068024;28;20422;-58
2022/09/08 08:18:17;;;;;;;40.35;32.65;;;17.50;99.90;;;;;;5057324;28;20045;-58
2022/09/08 08:20:53;;;;;;;36.50;30.77;;;17.60;99.90;;;;;;5048802;28;20518;-58
2022/09/08 08:23:32;;;;;;;36.78;30.75;;;17.70;99.90;;;;;;5031061;28;20045;-58
2022/09/08 08:26:09;;;;;;;32.75;29.13;;;17.80;99.90;;;;;;5064389;28;20053;-58
2022/09/08 08:28:43;;;;;;;33.88;28.05;;;17.80;99.90;;;;;;5048834;28;20056;-60
2022/09/08 08:31:19;;;;;;;34.53;27.90;;;17.90;99.90;;;;;;5043784;28;20056;-58
2022/09/08 08:33:54;;;;;;;31.48;25.48;;;18.00;99.90;;;;;;5068520;28;20533;-57
2022/09/08 08:36:24;;;;;;;31.15;25.90;;;18.00;99.90;;;;;;5065006;28;20044;-60
2022/09/08 08:39:21;;;;;;;29.10;24.92;;;18.10;99.90;;;;;;5048821;28;20048;-57
2022/09/08 08:41:57;;;;;;;26.98;24.08;;;18.30;99.90;;;;;;5047643;28;20573;-61
2022/09/08 08:44:23;;;;;;;26.10;22.02;;;18.50;99.90;;;;;;5049079;28;20057;-62
2022/09/08 08:47:11;;;;;;;27.90;23.80;;;18.70;99.90;;;;;;5048838;28;20538;-62
2022/09/08 08:50:08;;;;;;;26.65;22.40;;;18.70;99.90;;;;;;5048248;28;20474;-61
2022/09/08 08:52:57;;;;;;;25.58;21.40;;;18.60;99.90;;;;;;5050014;28;20052;-62
2022/09/08 08:55:37;;;;;;;25.02;22.38;;;18.50;99.90;;;;;;5068363;28;20141;-62
2022/09/08 08:58:12;;;;;;;24.85;22.17;;;18.60;99.90;;;;;;5065930;28;20234;-57
2022/09/08 09:01:02;;;;;;;24.15;20.83;;;18.70;99.90;;;;;;5068182;28;20790;-57
2022/09/08 09:03:56;;;;;;;24.15;21.63;;;18.80;99.90;;;;;;5068592;28;20067;-56
2022/09/08 09:06:43;;;;;;;24.45;21.98;;;18.80;99.90;;;;;;5058204;28;20588;-57
2022/09/08 09:09:30;;;;;;;25.60;22.50;;;18.90;99.90;;;;;;5071907;28;20063;-57
2022/09/08 09:12:27;;;;;;;25.38;21.33;;;18.80;99.90;;;;;;5072262;28;20088;-56
2022/09/08 09:15:15;;;;;;;24.73;21.27;;;18.80;99.90;;;;;;5071151;28;20053;-56
2022/09/08 09:17:58;;;;;;;22.15;19.10;;;18.80;99.90;;;;;;5071883;28;20059;-57
2022/09/08 09:20:48;;;;;;;22.77;20.33;;;18.80;99.90;;;;;;5071385;28;20136;-57
2022/09/08 09:23:24;;;;;;;24.02;21.38;;;18.80;99.90;;;;;;5072205;28;20048;-59
2022/09/08 09:26:00;;;;;;;24.73;20.55;;;18.70;99.90;;;;;;5072255;28;20047;-57
2022/09/08 09:28:55;;;;;;;22.10;19.58;;;18.70;99.90;;;;;;5070673;28;20056;-57
2022/09/08 09:31:44;;;;;;;24.60;19.92;;;18.80;99.90;;;;;;5052381;28;20053;-60
2022/09/08 09:34:16;;;;;;;24.25;19.67;;;19.00;99.90;;;;;;5068802;28;20054;-57
2022/09/08 09:36:47;;;;;;;21.52;19.23;;;19.00;99.90;;;;;;5062467;28;20119;-56
2022/09/08 09:39:32;;;;;;;20.77;18.67;;;19.00;99.90;;;;;;5049869;28;20582;-56
2022/09/08 09:42:16;;;;;;;18.30;16.45;;;19.10;99.90;;;;;;5050707;28;20529;-57
2022/09/08 09:45:16;;;;;;;18.77;16.88;;;19.20;99.90;;;;;;5050172;28;20521;-56
2022/09/08 09:48:00;;;;;;;17.92;15.25;;;19.40;99.90;;;;;;5051248;28;20445;-57
2022/09/08 09:50:44;;;;;;;;;;;19.40;99.90;;;;;;5052095;28;20049;-57
2022/09/08 09:53:32;;;;;;;16.17;13.98;;;19.30;99.90;;;;;;5051945;28;20333;-57
2022/09/08 09:56:29;;;;;;;14.93;13.30;;;19.40;99.90;;;;;;5050274;28;20048;-57
2022/09/08 09:59:33;;;;;;;14.35;12.85;;;19.50;99.90;;;;;;5048964;28;20122;-57
2022/09/08 10:02:13;;;;;;;12.80;11.52;;;19.40;99.90;;;;;;5052319;28;20483;-57
2022/09/08 10:04:44;;;;;;;12.75;11.38;;;19.30;99.90;;;;;;5069989;28;20390;-56
2022/09/08 10:07:39;;;;;;;12.68;11.38;;;19.20;99.90;;;;;;5070519;28;20037;-57
2022/09/08 10:10:38;;;;;;;12.07;10.73;;;19.30;99.90;;;;;;5028944;28;20053;-57
2022/09/08 10:13:26;;;;;;;11.70;9.23;;;19.30;99.90;;;;;;5051185;28;20396;-57
2022/09/08 10:16:06;;;;;;;8.20;7.40;;;19.20;99.90;;;;;;5051431;28;20044;-57
2022/09/08 10:18:45;;;;;;;11.70;7.82;;;19.10;99.90;;;;;;5066429;28;20044;-57
2022/09/08 10:21:29;;;;;;;7.50;6.78;;;19.00;99.90;;;;;;5070405;28;20056;-57
2022/09/08 10:24:29;;;;;;;9.20;6.63;;;18.90;99.90;;;;;;5070489;28;20535;-57
2022/09/08 10:27:10;;;;;;;8.50;5.55;;;18.90;99.90;;;;;;5062224;28;20052;-57
2022/09/08 10:30:13;;;;;;;6.38;5.13;;;18.90;99.90;;;;;;5067089;28;20052;-57
2022/09/08 10:32:57;;;;;;;6.60;6.03;;;18.90;99.90;;;;;;5065267;28;20513;-57
2022/09/08 10:35:52;;;;;;;7.57;6.60;;;18.90;99.90;;;;;;5059324;28;20610;-57
2022/09/08 10:38:27;;;;;;;6.60;5.95;;;19.00;99.90;;;;;;5054560;28;20086;-57
2022/09/08 10:41:23;;;;;;;5.93;5.28;;;18.90;99.90;;;;;;5049177;28;20057;-57
2022/09/08 10:44:07;;;;;;;6.07;4.55;;;18.90;99.90;;;;;;5046896;28;20056;-57
2022/09/08 10:46:49;;;;;;;4.32;3.92;;;18.90;99.90;;;;;;5046786;28;20059;-57
2022/09/08 10:49:33;;;;;;;4.03;3.63;;;18.90;99.90;;;;;;5046088;28;20053;-57
2022/09/08 10:52:26;;;;;;;5.50;4.32;;;18.90;99.90;;;;;;5047091;28;20070;-57
2022/09/08 10:55:35;;;;;;;5.53;3.85;;;19.10;99.90;;;;;;5045709;28;20084;-57
2022/09/08 10:58:33;;;;;;;3.45;3.15;;;19.20;99.90;;;;;;5062956;28;20048;-57
2022/09/08 11:01:23;;;;;;;5.85;4.25;;;18.90;99.90;;;;;;5066295;28;20399;-57
2022/09/08 11:04:23;;;;;;;3.70;3.15;;;18.90;99.90;;;;;;5064325;28;20047;-57
2022/09/08 11:07:11;;;;;;;4.50;4.05;;;18.80;99.90;;;;;;5047137;28;20055;-57
2022/09/08 11:09:45;;;;;;;4.95;3.42;;;18.80;99.90;;;;;;5054872;28;20437;-57
2022/09/08 11:12:25;;;;;;;3.88;3.30;;;18.70;99.90;;;;;;5046680;28;20094;-57
2022/09/08 11:15:15;;;;;;;4.45;3.15;;;18.70;99.90;;;;;;5046815;28;20123;-57
2022/09/08 11:17:47;;;;;;;3.05;2.80;;;18.80;99.90;;;;;;5055659;28;20048;-57
2022/09/08 11:20:24;;;;;;;4.80;2.92;;;18.90;99.90;;;;;;5048632;28;20383;-57
2022/09/08 11:23:23;;;;;;;3.05;2.55;;;18.90;99.90;;;;;;5066797;28;20131;-57
2022/09/08 11:26:03;;;;;;;1.73;1.63;;;18.70;99.90;;;;;;5046621;28;20078;-57
2022/09/08 11:28:43;;;;;;;2.40;2.00;;;18.70;99.90;;;;;;5046314;28;20061;-57
2022/09/08 11:31:25;;;;;;;2.85;1.52;;;18.70;99.90;;;;;;5045782;28;20548;-57
2022/09/08 11:34:10;;;;;;;2.92;2.35;;;18.70;99.90;;;;;;5046421;28;20037;-57
2022/09/08 11:37:00;;;;;;;1.17;1.08;;;18.60;99.90;;;;;;5056522;28;20056;-57
2022/09/08 11:39:29;;;;;;;2.65;1.33;;;18.50;99.90;;;;;;5045932;28;20049;-57
2022/09/08 11:42:32;;;;;;;4.03;1.60;;;18.40;99.90;;;;;;5045913;28;20091;-57
2022/09/08 11:45:17;;;;;;;2.45;1.13;;;18.30;99.90;;;;;;5044857;28;20053;-57
2022/09/08 11:47:43;;;;;;;2.72;1.45;;;18.20;99.90;;;;;;5045081;28;20063;-57
2022/09/08 11:50:15;;;;;;;1.77;1.50;;;18.40;99.90;;;;;;5045433;28;20044;-57
2022/09/08 11:53:18;;;;;;;1.15;1.00;;;18.40;99.90;;;;;;5045767;28;20116;-57
2022/09/08 11:56:03;;;;;;;2.55;1.20;;;18.40;99.90;;;;;;5045615;28;20139;-57
2022/09/08 11:58:35;;;;;;;;;;;18.50;99.90;;;;;;5046496;28;20468;-57
2022/09/08 12:01:19;;;;;;;1.77;1.00;;;18.50;99.90;;;;;;5061197;28;19928;-57
2022/09/08 12:04:18;;;;;;;3.00;1.20;;;18.50;99.90;;;;;;5065784;28;20059;-58
2022/09/08 12:07:07;;;;;;;1.25;1.02;;;18.50;99.90;;;;;;5065726;28;20060;-57
2022/09/08 12:09:42;;;;;;;0.80;0.80;;;18.40;99.90;;;;;;5052807;28;20048;-57
2022/09/08 12:12:13;;;;;;;3.33;1.33;;;18.40;99.90;;;;;;5045302;28;20044;-57
2022/09/08 12:15:16;;;;;;;1.83;0.90;;;18.50;99.90;;;;;;5045195;28;20098;-57
2022/09/08 12:18:24;;;;;;;1.58;0.95;;;18.50;99.90;;;;;;5054484;28;20044;-57
2022/09/08 12:21:21;;;;;;;1.15;0.80;;;18.60;99.90;;;;;;5065534;28;20476;-57
2022/09/08 12:23:55;;;;;;;0.75;0.75;;;18.70;99.90;;;;;;5064634;28;20490;-57
2022/09/08 12:26:21;;;;;;;1.58;1.02;;;18.70;99.90;;;;;;5065294;28;20045;-57
2022/09/08 12:28:53;;;;;;;3.72;0.90;;;18.70;99.90;;;;;;5064535;28;20060;-57
2022/09/08 12:31:43;;;;;;;2.03;1.05;;;18.80;99.90;;;;;;5064505;28;20442;-57
2022/09/08 12:34:36;;;;;;;1.90;0.77;;;18.80;99.90;;;;;;5065490;28;20052;-57
2022/09/08 12:37:13;;;;;;;1.02;0.80;;;18.80;99.90;;;;;;5075358;28;20078;-57
2022/09/08 12:40:07;;;;;;;1.27;1.00;;;18.80;99.90;;;;;;5064916;28;20049;-57
2022/09/08 12:43:01;;;;;;;0.70;0.70;;;18.90;99.90;;;;;;5043751;28;20060;-57
2022/09/08 12:45:48;;;;;;;0.73;0.70;;;18.90;99.90;;;;;;5049253;28;20192;-57
2022/09/08 12:48:26;;;;;;;0.98;0.88;;;18.90;99.90;;;;;;5031443;28;20057;-57
2022/09/08 12:51:19;;;;;;;1.58;1.08;;;19.00;99.90;;;;;;5048906;28;20579;-57
2022/09/08 12:54:24;;;;;;;1.10;0.77;;;19.10;99.90;;;;;;5056498;28;20147;-57
2022/09/08 12:57:19;;;;;;;2.00;1.40;;;20.30;99.90;;;;;;5068937;28;20843;-57
2022/09/08 13:00:00;;;;;;;2.30;2.10;;;19.10;99.90;;;;;;5044697;28;20066;-57
2022/09/08 13:02:46;;;;;;;0.77;0.77;;;19.00;99.90;;;;;;5068952;28;20153;-57
2022/09/08 13:05:36;;;;;;;3.35;1.38;;;19.10;99.90;;;;;;5061793;28;20045;-57
2022/09/08 13:08:15;;;;;;;1.70;1.20;;;19.20;99.90;;;;;;5053632;28;20044;-57
2022/09/08 13:10:44;;;;;;;3.88;1.48;;;19.10;99.90;;;;;;5068707;28;20054;-57
2022/09/08 13:13:37;;;;;;;4.15;1.42;;;19.20;99.90;;;;;;5067978;28;20041;-57
2022/09/08 13:16:36;;;;;;;1.23;1.10;;;19.20;99.90;;;;;;5068670;28;20037;-57
2022/09/08 13:19:27;;;;;;;1.50;0.98;;;19.10;99.90;;;;;;5048204;28;20522;-57
2022/09/08 13:22:35;;;;;;;1.45;1.30;;;19.00;99.90;;;;;;5047058;28;20041;-57
2022/09/08 13:25:31;;;;;;;1.45;1.33;;;19.10;99.90;;;;;;5059388;28;20051;-57